sensor_id;sensor_type;location;lat;lon;timestamp;temperature;humidity
7411;DHT22;3747;48.628;9.058;2023-02-01T00:00:04;1.80;99.90
7411;DHT22;3747;48.628;9.058;2023-02-01T00:02:31;1.70;99.90
7411;DHT22;3747;48.628;9.058;2023-02-01T00:04:58;1.70;99.90
7411;DHT22;3747;48.628;9.058;2023-02-01T00:07:24;1.70;99.90
7411;DHT22;3747;48.628;9.058;2023-02-01T00:09:51;1.70;99.90
7411;DHT22;3747;48.628;9.058;2023-02-01T00:12:17;1.70;99.90
7411;DHT22;3747;48.628;9.058;2023-02-01T00:14:46;1.80;99.90
7411;DHT22;3747;48.628;9.058;2023-02-01T00:17:13;1.80;99.90
7411;DHT22;3747;48.628;9.058;2023-02-01T00:19:40;1.80;99.90
7411;DHT22;3747;48.628;9.058;2023-02-01T00:22:07;1.70;99.90
7411;DHT22;3747;48.628;9.058;2023-02-01T00:24:33;1.70;99.90
7411;DHT22;3747;48.628;9.058;2023-02-01T00:27:00;1.70;99.90
7411;DHT22;3747;48.628;9.058;2023-02-01T00:29:27;1.70;99.90
7411;DHT22;3747;48.628;9.058;2023-02-01T00:31:55;1.80;99.90
7411;DHT22;3747;48.628;9.058;2023-02-01T00:34:21;1.80;99.90
7411;DHT22;3747;48.628;9.058;2023-02-01T00:36:48;1.80;99.90
7411;DHT22;3747;48.628;9.058;2023-02-01T00:39:15;1.80;99.90
7411;DHT22;3747;48.628;9.058;2023-02-01T00:41:43;1.80;99.90
7411;DHT22;3747;48.628;9.058;2023-02-01T00:44:10;1.80;99.90
7411;DHT22;3747;48.628;9.058;2023-02-01T00:46:36;1.80;99.90
7411;DHT22;3747;48.628;9.058;2023-02-01T00:49:04;1.80;99.90
7411;DHT22;3747;48.628;9.058;2023-02-01T00:51:32;1.80;99.90
7411;DHT22;3747;48.628;9.058;2023-02-01T00:53:59;1.80;99.90
7411;DHT22;3747;48.628;9.058;2023-02-01T00:56:26;1.70;99.90
7411;DHT22;3747;48.628;9.058;2023-02-01T00:58:53;1.70;99.90
7411;DHT22;3747;48.628;9.058;2023-02-01T01:01:22;1.70;99.90
7411;DHT22;3747;48.628;9.058;2023-02-01T01:03:51;1.70;99.90
7411;DHT22;3747;48.628;9.058;2023-02-01T01:06:20;1.70;99.90
7411;DHT22;3747;48.628;9.058;2023-02-01T01:08:47;1.80;99.90
7411;DHT22;3747;48.628;9.058;2023-02-01T01:11:16;1.80;99.90
7411;DHT22;3747;48.628;9.058;2023-02-01T01:13:45;1.70;99.90
7411;DHT22;3747;48.628;9.058;2023-02-01T01:16:12;1.80;99.90
7411;DHT22;3747;48.628;9.058;2023-02-01T01:18:39;1.80;99.90
7411;DHT22;3747;48.628;9.058;2023-02-01T01:21:07;1.80;99.90
7411;DHT22;3747;48.628;9.058;2023-02-01T01:23:35;1.80;99.90
7411;DHT22;3747;48.628;9.058;2023-02-01T01:26:05;1.80;99.90
7411;DHT22;3747;48.628;9.058;2023-02-01T01:28:32;1.80;99.90
7411;DHT22;3747;48.628;9.058;2023-02-01T01:30:59;1.90;99.90
7411;DHT22;3747;48.628;9.058;2023-02-01T01:33:25;1.90;99.90
7411;DHT22;3747;48.628;9.058;2023-02-01T01:35:52;1.90;99.90
7411;DHT22;3747;48.628;9.058;2023-02-01T01:38:19;1.90;99.90
7411;DHT22;3747;48.628;9.058;2023-02-01T01:40:47;1.90;99.90
7411;DHT22;3747;48.628;9.058;2023-02-01T01:43:16;1.90;99.90
7411;DHT22;3747;48.628;9.058;2023-02-01T01:45:45;1.90;99.90
7411;DHT22;3747;48.628;9.058;2023-02-01T01:48:14;1.90;99.90
7411;DHT22;3747;48.628;9.058;2023-02-01T01:50:45;1.90;99.90
7411;DHT22;3747;48.628;9.058;2023-02-01T01:53:16;1.90;99.90
7411;DHT22;3747;48.628;9.058;2023-02-01T01:55:46;1.90;99.90
7411;DHT22;3747;48.628;9.058;2023-02-01T01:58:17;1.90;99.90
7411;DHT22;3747;48.628;9.058;2023-02-01T02:00:44;1.90;99.90
7411;DHT22;3747;48.628;9.058;2023-02-01T02:03:15;1.90;99.90
7411;DHT22;3747;48.628;9.058;2023-02-01T02:05:42;1.90;99.90
7411;DHT22;3747;48.628;9.058;2023-02-01T02:08:09;1.90;99.90
7411;DHT22;3747;48.628;9.058;2023-02-01T02:10:36;2.00;99.90
7411;DHT22;3747;48.628;9.058;2023-02-01T02:13:23;2.00;99.90
7411;DHT22;3747;48.628;9.058;2023-02-01T02:16:04;2.00;99.90
7411;DHT22;3747;48.628;9.058;2023-02-01T02:18:41;2.00;99.90
7411;DHT22;3747;48.628;9.058;2023-02-01T02:21:15;2.00;99.90
7411;DHT22;3747;48.628;9.058;2023-02-01T02:24:07;2.10;99.90
7411;DHT22;3747;48.628;9.058;2023-02-01T02:26:57;2.10;99.90
7411;DHT22;3747;48.628;9.058;2023-02-01T02:29:54;2.10;99.90
7411;DHT22;3747;48.628;9.058;2023-02-01T02:32:42;2.10;99.90
7411;DHT22;3747;48.628;9.058;2023-02-01T02:35:21;2.10;99.90
7411;DHT22;3747;48.628;9.058;2023-02-01T02:37:57;2.10;99.90
7411;DHT22;3747;48.628;9.058;2023-02-01T02:40:32;2.10;99.90
7411;DHT22;3747;48.628;9.058;2023-02-01T02:43:05;2.10;99.90
7411;DHT22;3747;48.628;9.058;2023-02-01T02:45:55;2.10;99.90
7411;DHT22;3747;48.628;9.058;2023-02-01T02:48:46;2.20;99.90
7411;DHT22;3747;48.628;9.058;2023-02-01T02:51:17;2.20;99.90
7411;DHT22;3747;48.628;9.058;2023-02-01T02:54:07;2.20;99.90
7411;DHT22;3747;48.628;9.058;2023-02-01T02:56:53;2.10;99.90
7411;DHT22;3747;48.628;9.058;2023-02-01T02:59:38;2.10;99.90
7411;DHT22;3747;48.628;9.058;2023-02-01T03:02:25;2.20;99.90
7411;DHT22;3747;48.628;9.058;2023-02-01T03:05:10;2.20;99.90
7411;DHT22;3747;48.628;9.058;2023-02-01T03:07:55;2.20;99.90
7411;DHT22;3747;48.628;9.058;2023-02-01T03:10:29;2.20;99.90
7411;DHT22;3747;48.628;9.058;2023-02-01T03:13:02;2.10;99.90
7411;DHT22;3747;48.628;9.058;2023-02-01T03:15:33;2.10;99.90
7411;DHT22;3747;48.628;9.058;2023-02-01T03:18:05;2.20;99.90
7411;DHT22;3747;48.628;9.058;2023-02-01T03:20:34;2.20;99.90
7411;DHT22;3747;48.628;9.058;2023-02-01T03:23:04;2.10;99.90
7411;DHT22;3747;48.628;9.058;2023-02-01T03:25:33;2.10;99.90
7411;DHT22;3747;48.628;9.058;2023-02-01T03:28:02;2.20;99.90
7411;DHT22;3747;48.628;9.058;2023-02-01T03:30:34;2.10;99.90
7411;DHT22;3747;48.628;9.058;2023-02-01T03:33:05;2.10;99.90
7411;DHT22;3747;48.628;9.058;2023-02-01T03:35:42;2.10;99.90
7411;DHT22;3747;48.628;9.058;2023-02-01T03:38:17;2.20;99.90
7411;DHT22;3747;48.628;9.058;2023-02-01T03:40:49;2.10;99.90
7411;DHT22;3747;48.628;9.058;2023-02-01T03:43:19;2.20;99.90
7411;DHT22;3747;48.628;9.058;2023-02-01T03:45:49;2.10;99.90
7411;DHT22;3747;48.628;9.058;2023-02-01T03:48:17;2.20;99.90
7411;DHT22;3747;48.628;9.058;2023-02-01T03:50:49;2.20;99.90
7411;DHT22;3747;48.628;9.058;2023-02-01T03:53:22;2.20;99.90
7411;DHT22;3747;48.628;9.058;2023-02-01T03:55:50;2.20;99.90
7411;DHT22;3747;48.628;9.058;2023-02-01T03:58:20;2.20;99.90
7411;DHT22;3747;48.628;9.058;2023-02-01T04:00:51;2.20;99.90
7411;DHT22;3747;48.628;9.058;2023-02-01T04:03:18;2.20;99.90
7411;DHT22;3747;48.628;9.058;2023-02-01T04:05:44;2.20;99.90
7411;DHT22;3747;48.628;9.058;2023-02-01T04:08:11;2.20;99.90
7411;DHT22;3747;48.628;9.058;2023-02-01T04:10:39;2.20;99.90
7411;DHT22;3747;48.628;9.058;2023-02-01T04:13:06;2.20;99.90
7411;DHT22;3747;48.628;9.058;2023-02-01T04:15:32;2.20;99.90
7411;DHT22;3747;48.628;9.058;2023-02-01T04:18:00;2.20;99.90
7411;DHT22;3747;48.628;9.058;2023-02-01T04:20:27;2.20;99.90
7411;DHT22;3747;48.628;9.058;2023-02-01T04:22:54;2.20;99.90
7411;DHT22;3747;48.628;9.058;2023-02-01T04:25:20;2.20;99.90
7411;DHT22;3747;48.628;9.058;2023-02-01T04:27:48;2.20;99.90
7411;DHT22;3747;48.628;9.058;2023-02-01T04:30:16;2.20;99.90
7411;DHT22;3747;48.628;9.058;2023-02-01T04:32:42;2.20;99.90
7411;DHT22;3747;48.628;9.058;2023-02-01T04:35:09;2.20;99.90
7411;DHT22;3747;48.628;9.058;2023-02-01T04:37:37;2.20;99.90
7411;DHT22;3747;48.628;9.058;2023-02-01T04:40:04;2.20;99.90
7411;DHT22;3747;48.628;9.058;2023-02-01T04:42:31;2.30;99.90
7411;DHT22;3747;48.628;9.058;2023-02-01T04:44:59;2.30;99.90
7411;DHT22;3747;48.628;9.058;2023-02-01T04:47:26;2.30;99.90
7411;DHT22;3747;48.628;9.058;2023-02-01T04:49:52;2.30;99.90
7411;DHT22;3747;48.628;9.058;2023-02-01T04:52:19;2.30;99.90
7411;DHT22;3747;48.628;9.058;2023-02-01T04:54:46;2.30;99.90
7411;DHT22;3747;48.628;9.058;2023-02-01T04:57:12;2.30;99.90
7411;DHT22;3747;48.628;9.058;2023-02-01T04:59:40;2.30;99.90
7411;DHT22;3747;48.628;9.058;2023-02-01T05:02:08;2.30;99.90
7411;DHT22;3747;48.628;9.058;2023-02-01T05:04:35;2.30;99.90
7411;DHT22;3747;48.628;9.058;2023-02-01T05:07:01;2.30;99.90
7411;DHT22;3747;48.628;9.058;2023-02-01T05:09:28;2.30;99.90
7411;DHT22;3747;48.628;9.058;2023-02-01T05:11:55;2.30;99.90
7411;DHT22;3747;48.628;9.058;2023-02-01T05:14:39;2.40;99.90
7411;DHT22;3747;48.628;9.058;2023-02-01T05:17:05;2.30;99.90
7411;DHT22;3747;48.628;9.058;2023-02-01T05:19:33;2.30;99.90
7411;DHT22;3747;48.628;9.058;2023-02-01T05:22:00;2.30;99.90
7411;DHT22;3747;48.628;9.058;2023-02-01T05:24:27;2.30;99.90
7411;DHT22;3747;48.628;9.058;2023-02-01T05:26:53;2.30;99.90
7411;DHT22;3747;48.628;9.058;2023-02-01T05:29:20;2.30;99.90
7411;DHT22;3747;48.628;9.058;2023-02-01T05:31:47;2.30;99.90
7411;DHT22;3747;48.628;9.058;2023-02-01T05:34:15;2.30;99.90
7411;DHT22;3747;48.628;9.058;2023-02-01T05:36:43;2.30;99.90
7411;DHT22;3747;48.628;9.058;2023-02-01T05:39:09;2.40;99.90
7411;DHT22;3747;48.628;9.058;2023-02-01T05:41:36;2.40;99.90
7411;DHT22;3747;48.628;9.058;2023-02-01T05:44:03;2.40;99.90
7411;DHT22;3747;48.628;9.058;2023-02-01T05:46:30;2.50;99.90
7411;DHT22;3747;48.628;9.058;2023-02-01T05:48:57;2.50;99.90
7411;DHT22;3747;48.628;9.058;2023-02-01T05:51:24;2.50;99.90
7411;DHT22;3747;48.628;9.058;2023-02-01T05:53:52;2.50;99.90
7411;DHT22;3747;48.628;9.058;2023-02-01T05:56:19;2.50;99.90
7411;DHT22;3747;48.628;9.058;2023-02-01T05:58:46;2.50;99.90
7411;DHT22;3747;48.628;9.058;2023-02-01T06:01:12;2.50;99.90
7411;DHT22;3747;48.628;9.058;2023-02-01T06:03:39;2.50;99.90
7411;DHT22;3747;48.628;9.058;2023-02-01T06:06:06;2.50;99.90
7411;DHT22;3747;48.628;9.058;2023-02-01T06:08:32;2.50;99.90
7411;DHT22;3747;48.628;9.058;2023-02-01T06:11:02;2.50;99.90
7411;DHT22;3747;48.628;9.058;2023-02-01T06:13:29;2.40;99.90
7411;DHT22;3747;48.628;9.058;2023-02-01T06:15:56;2.40;99.90
7411;DHT22;3747;48.628;9.058;2023-02-01T06:18:23;2.40;99.90
7411;DHT22;3747;48.628;9.058;2023-02-01T06:20:52;2.40;99.90
7411;DHT22;3747;48.628;9.058;2023-02-01T06:23:19;2.30;99.90
7411;DHT22;3747;48.628;9.058;2023-02-01T06:25:49;2.30;99.90
7411;DHT22;3747;48.628;9.058;2023-02-01T06:28:17;2.30;99.90
7411;DHT22;3747;48.628;9.058;2023-02-01T06:30:44;2.30;99.90
7411;DHT22;3747;48.628;9.058;2023-02-01T06:33:11;2.30;99.90
7411;DHT22;3747;48.628;9.058;2023-02-01T06:35:40;2.30;99.90
7411;DHT22;3747;48.628;9.058;2023-02-01T06:38:07;2.30;99.90
7411;DHT22;3747;48.628;9.058;2023-02-01T06:40:35;2.40;99.90
7411;DHT22;3747;48.628;9.058;2023-02-01T06:43:02;2.40;99.90
7411;DHT22;3747;48.628;9.058;2023-02-01T06:45:30;2.40;99.90
7411;DHT22;3747;48.628;9.058;2023-02-01T06:47:58;2.30;99.90
7411;DHT22;3747;48.628;9.058;2023-02-01T06:50:25;2.30;99.90
7411;DHT22;3747;48.628;9.058;2023-02-01T06:52:52;2.20;99.90
7411;DHT22;3747;48.628;9.058;2023-02-01T06:55:18;2.20;99.90
7411;DHT22;3747;48.628;9.058;2023-02-01T06:57:45;2.20;99.90
7411;DHT22;3747;48.628;9.058;2023-02-01T07:00:13;2.20;99.90
7411;DHT22;3747;48.628;9.058;2023-02-01T07:02:41;2.10;99.90
7411;DHT22;3747;48.628;9.058;2023-02-01T07:05:08;2.10;99.90
7411;DHT22;3747;48.628;9.058;2023-02-01T07:07:35;2.10;99.90
7411;DHT22;3747;48.628;9.058;2023-02-01T07:10:02;2.10;99.90
7411;DHT22;3747;48.628;9.058;2023-02-01T07:12:29;2.10;99.90
7411;DHT22;3747;48.628;9.058;2023-02-01T07:14:55;2.10;99.90
7411;DHT22;3747;48.628;9.058;2023-02-01T07:17:22;2.10;99.90
7411;DHT22;3747;48.628;9.058;2023-02-01T07:19:50;2.10;99.90
7411;DHT22;3747;48.628;9.058;2023-02-01T07:22:17;2.10;99.90
7411;DHT22;3747;48.628;9.058;2023-02-01T07:24:44;2.20;99.90
7411;DHT22;3747;48.628;9.058;2023-02-01T07:27:10;2.20;99.90
7411;DHT22;3747;48.628;9.058;2023-02-01T07:29:37;2.20;99.90
7411;DHT22;3747;48.628;9.058;2023-02-01T07:32:04;2.20;99.90
7411;DHT22;3747;48.628;9.058;2023-02-01T07:34:31;2.30;99.90
7411;DHT22;3747;48.628;9.058;2023-02-01T07:37:00;2.30;99.90
7411;DHT22;3747;48.628;9.058;2023-02-01T07:39:26;2.30;99.90
7411;DHT22;3747;48.628;9.058;2023-02-01T07:41:57;2.40;99.90
7411;DHT22;3747;48.628;9.058;2023-02-01T07:44:24;2.40;99.90
7411;DHT22;3747;48.628;9.058;2023-02-01T07:46:50;2.40;99.90
7411;DHT22;3747;48.628;9.058;2023-02-01T07:49:17;2.40;99.90
7411;DHT22;3747;48.628;9.058;2023-02-01T07:51:44;2.50;99.90
7411;DHT22;3747;48.628;9.058;2023-02-01T07:54:12;2.50;99.90
7411;DHT22;3747;48.628;9.058;2023-02-01T07:56:38;2.50;99.90
7411;DHT22;3747;48.628;9.058;2023-02-01T07:59:05;2.60;99.90
7411;DHT22;3747;48.628;9.058;2023-02-01T08:01:33;2.60;99.90
7411;DHT22;3747;48.628;9.058;2023-02-01T08:04:00;2.70;99.90
7411;DHT22;3747;48.628;9.058;2023-02-01T08:06:28;2.70;99.90
7411;DHT22;3747;48.628;9.058;2023-02-01T08:08:56;2.70;99.90
7411;DHT22;3747;48.628;9.058;2023-02-01T08:11:25;2.70;99.90
7411;DHT22;3747;48.628;9.058;2023-02-01T08:13:53;2.80;99.90
7411;DHT22;3747;48.628;9.058;2023-02-01T08:16:21;2.80;99.90
7411;DHT22;3747;48.628;9.058;2023-02-01T08:18:48;2.80;99.90
7411;DHT22;3747;48.628;9.058;2023-02-01T08:21:17;2.90;99.90
7411;DHT22;3747;48.628;9.058;2023-02-01T08:23:44;2.90;99.90
7411;DHT22;3747;48.628;9.058;2023-02-01T08:26:13;2.90;99.90
7411;DHT22;3747;48.628;9.058;2023-02-01T08:28:43;3.00;99.90
7411;DHT22;3747;48.628;9.058;2023-02-01T08:31:13;3.00;99.90
7411;DHT22;3747;48.628;9.058;2023-02-01T08:33:41;3.00;99.90
7411;DHT22;3747;48.628;9.058;2023-02-01T08:36:09;3.00;99.90
7411;DHT22;3747;48.628;9.058;2023-02-01T08:38:38;3.10;99.90
7411;DHT22;3747;48.628;9.058;2023-02-01T08:41:08;3.20;99.90
7411;DHT22;3747;48.628;9.058;2023-02-01T08:43:35;3.30;99.90
7411;DHT22;3747;48.628;9.058;2023-02-01T08:46:04;3.40;99.90
7411;DHT22;3747;48.628;9.058;2023-02-01T08:48:32;3.50;99.90
7411;DHT22;3747;48.628;9.058;2023-02-01T08:51:01;3.40;99.90
7411;DHT22;3747;48.628;9.058;2023-02-01T08:53:28;3.50;99.90
7411;DHT22;3747;48.628;9.058;2023-02-01T08:55:55;3.60;99.90
7411;DHT22;3747;48.628;9.058;2023-02-01T08:58:22;3.70;99.90
7411;DHT22;3747;48.628;9.058;2023-02-01T09:00:49;3.70;99.90
7411;DHT22;3747;48.628;9.058;2023-02-01T09:03:17;3.70;99.90
7411;DHT22;3747;48.628;9.058;2023-02-01T09:05:44;3.60;99.90
7411;DHT22;3747;48.628;9.058;2023-02-01T09:08:11;3.60;99.90
7411;DHT22;3747;48.628;9.058;2023-02-01T09:10:40;3.60;99.90
7411;DHT22;3747;48.628;9.058;2023-02-01T09:13:08;3.50;99.90
7411;DHT22;3747;48.628;9.058;2023-02-01T09:15:34;3.40;99.90
7411;DHT22;3747;48.628;9.058;2023-02-01T09:18:01;3.40;99.90
7411;DHT22;3747;48.628;9.058;2023-02-01T09:20:29;3.30;99.90
7411;DHT22;3747;48.628;9.058;2023-02-01T09:22:56;3.30;99.90
7411;DHT22;3747;48.628;9.058;2023-02-01T09:25:23;3.30;99.90
7411;DHT22;3747;48.628;9.058;2023-02-01T09:27:50;3.20;99.90
7411;DHT22;3747;48.628;9.058;2023-02-01T09:30:17;3.20;99.90
7411;DHT22;3747;48.628;9.058;2023-02-01T09:32:43;3.20;99.90
7411;DHT22;3747;48.628;9.058;2023-02-01T09:35:11;3.30;99.90
7411;DHT22;3747;48.628;9.058;2023-02-01T09:37:39;3.40;99.90
7411;DHT22;3747;48.628;9.058;2023-02-01T09:40:06;3.40;99.90
7411;DHT22;3747;48.628;9.058;2023-02-01T09:43:09;3.50;99.90
7411;DHT22;3747;48.628;9.058;2023-02-01T09:45:45;3.60;99.90
7411;DHT22;3747;48.628;9.058;2023-02-01T09:48:17;3.60;99.90
7411;DHT22;3747;48.628;9.058;2023-02-01T09:50:47;3.60;99.90
7411;DHT22;3747;48.628;9.058;2023-02-01T09:53:22;3.60;99.90
7411;DHT22;3747;48.628;9.058;2023-02-01T09:55:54;3.60;99.90
7411;DHT22;3747;48.628;9.058;2023-02-01T09:58:25;3.70;99.90
7411;DHT22;3747;48.628;9.058;2023-02-01T10:00:55;3.70;99.90
7411;DHT22;3747;48.628;9.058;2023-02-01T10:03:24;3.70;99.90
7411;DHT22;3747;48.628;9.058;2023-02-01T10:06:06;3.80;99.90
7411;DHT22;3747;48.628;9.058;2023-02-01T10:08:55;3.80;99.90
7411;DHT22;3747;48.628;9.058;2023-02-01T10:11:32;4.00;99.90
7411;DHT22;3747;48.628;9.058;2023-02-01T10:14:33;4.10;99.90
7411;DHT22;3747;48.628;9.058;2023-02-01T10:17:06;4.10;99.90
7411;DHT22;3747;48.628;9.058;2023-02-01T10:19:42;4.20;99.90
7411;DHT22;3747;48.628;9.058;2023-02-01T10:22:21;4.30;99.90
7411;DHT22;3747;48.628;9.058;2023-02-01T10:24:58;4.40;99.90
7411;DHT22;3747;48.628;9.058;2023-02-01T10:27:33;4.60;99.90
7411;DHT22;3747;48.628;9.058;2023-02-01T10:30:05;4.60;99.90
7411;DHT22;3747;48.628;9.058;2023-02-01T10:32:34;4.60;99.90
7411;DHT22;3747;48.628;9.058;2023-02-01T10:35:08;4.60;99.90
7411;DHT22;3747;48.628;9.058;2023-02-01T10:37:37;4.60;99.90
7411;DHT22;3747;48.628;9.058;2023-02-01T10:40:15;4.60;99.90
7411;DHT22;3747;48.628;9.058;2023-02-01T10:42:43;4.60;99.90
7411;DHT22;3747;48.628;9.058;2023-02-01T10:45:14;4.60;99.90
7411;DHT22;3747;48.628;9.058;2023-02-01T10:47:41;4.60;99.90
7411;DHT22;3747;48.628;9.058;2023-02-01T10:50:16;4.60;99.90
7411;DHT22;3747;48.628;9.058;2023-02-01T10:52:47;4.50;99.90
7411;DHT22;3747;48.628;9.058;2023-02-01T10:55:36;4.50;99.90
7411;DHT22;3747;48.628;9.058;2023-02-01T10:58:05;4.50;99.90
7411;DHT22;3747;48.628;9.058;2023-02-01T11:00:43;4.50;99.90
7411;DHT22;3747;48.628;9.058;2023-02-01T11:03:34;4.60;99.90
7411;DHT22;3747;48.628;9.058;2023-02-01T11:06:08;4.60;99.90
7411;DHT22;3747;48.628;9.058;2023-02-01T11:08:42;4.60;99.90
7411;DHT22;3747;48.628;9.058;2023-02-01T11:11:11;4.50;99.90
7411;DHT22;3747;48.628;9.058;2023-02-01T11:13:39;4.50;99.90
7411;DHT22;3747;48.628;9.058;2023-02-01T11:16:09;4.50;99.90
7411;DHT22;3747;48.628;9.058;2023-02-01T11:18:37;4.50;99.90
7411;DHT22;3747;48.628;9.058;2023-02-01T11:21:05;4.50;99.90
7411;DHT22;3747;48.628;9.058;2023-02-01T11:23:33;4.50;99.90
7411;DHT22;3747;48.628;9.058;2023-02-01T11:26:10;4.50;99.90
7411;DHT22;3747;48.628;9.058;2023-02-01T11:28:39;4.60;99.90
7411;DHT22;3747;48.628;9.058;2023-02-01T11:31:10;4.60;99.90
7411;DHT22;3747;48.628;9.058;2023-02-01T11:33:41;4.60;99.90
7411;DHT22;3747;48.628;9.058;2023-02-01T11:36:13;4.70;99.90
7411;DHT22;3747;48.628;9.058;2023-02-01T11:38:46;4.70;99.90
7411;DHT22;3747;48.628;9.058;2023-02-01T11:41:21;4.80;99.90
7411;DHT22;3747;48.628;9.058;2023-02-01T11:43:54;4.80;99.90
7411;DHT22;3747;48.628;9.058;2023-02-01T11:46:24;4.90;99.90
7411;DHT22;3747;48.628;9.058;2023-02-01T11:48:54;5.00;99.90
7411;DHT22;3747;48.628;9.058;2023-02-01T11:51:35;5.00;99.90
7411;DHT22;3747;48.628;9.058;2023-02-01T11:54:11;4.90;99.90
7411;DHT22;3747;48.628;9.058;2023-02-01T11:56:47;4.80;99.90
7411;DHT22;3747;48.628;9.058;2023-02-01T11:59:31;4.80;99.90
7411;DHT22;3747;48.628;9.058;2023-02-01T12:05:15;4.70;99.90
7411;DHT22;3747;48.628;9.058;2023-02-01T12:07:59;4.70;99.90
7411;DHT22;3747;48.628;9.058;2023-02-01T12:10:35;4.70;99.90
7411;DHT22;3747;48.628;9.058;2023-02-01T12:13:14;4.60;99.90
7411;DHT22;3747;48.628;9.058;2023-02-01T12:15:55;4.50;99.90
7411;DHT22;3747;48.628;9.058;2023-02-01T12:18:51;4.50;99.90
7411;DHT22;3747;48.628;9.058;2023-02-01T12:21:33;4.40;99.90
7411;DHT22;3747;48.628;9.058;2023-02-01T12:24:31;4.40;99.90
7411;DHT22;3747;48.628;9.058;2023-02-01T12:27:14;4.40;99.90
7411;DHT22;3747;48.628;9.058;2023-02-01T12:29:57;4.40;99.90
7411;DHT22;3747;48.628;9.058;2023-02-01T12:32:43;4.40;99.90
7411;DHT22;3747;48.628;9.058;2023-02-01T12:35:22;4.50;99.90
7411;DHT22;3747;48.628;9.058;2023-02-01T12:38:05;4.50;99.90
7411;DHT22;3747;48.628;9.058;2023-02-01T12:40:46;4.50;99.90
7411;DHT22;3747;48.628;9.058;2023-02-01T12:43:20;4.40;99.90
7411;DHT22;3747;48.628;9.058;2023-02-01T12:45:55;4.40;99.90
7411;DHT22;3747;48.628;9.058;2023-02-01T12:48:29;4.30;99.90
7411;DHT22;3747;48.628;9.058;2023-02-01T12:51:01;4.30;99.90
7411;DHT22;3747;48.628;9.058;2023-02-01T12:53:42;4.30;99.90
7411;DHT22;3747;48.628;9.058;2023-02-01T12:56:13;4.30;99.90
7411;DHT22;3747;48.628;9.058;2023-02-01T12:58:43;4.30;99.90
7411;DHT22;3747;48.628;9.058;2023-02-01T13:01:17;4.30;99.90
7411;DHT22;3747;48.628;9.058;2023-02-01T13:03:54;4.30;99.90
7411;DHT22;3747;48.628;9.058;2023-02-01T13:06:26;4.30;99.90
7411;DHT22;3747;48.628;9.058;2023-02-01T13:09:02;4.40;99.90
7411;DHT22;3747;48.628;9.058;2023-02-01T13:11:31;4.20;99.90
7411;DHT22;3747;48.628;9.058;2023-02-01T13:14:03;4.30;99.90
7411;DHT22;3747;48.628;9.058;2023-02-01T13:16:35;4.30;99.90
7411;DHT22;3747;48.628;9.058;2023-02-01T13:19:10;4.20;99.90
7411;DHT22;3747;48.628;9.058;2023-02-01T13:21:42;4.20;99.90
7411;DHT22;3747;48.628;9.058;2023-02-01T13:24:30;4.10;99.90
7411;DHT22;3747;48.628;9.058;2023-02-01T13:26:57;4.10;99.90
7411;DHT22;3747;48.628;9.058;2023-02-01T13:29:25;4.20;99.90
7411;DHT22;3747;48.628;9.058;2023-02-01T13:38:02;4.10;99.90
7411;DHT22;3747;48.628;9.058;2023-02-01T13:40:37;4.10;99.90
7411;DHT22;3747;48.628;9.058;2023-02-01T13:43:10;4.00;99.90
7411;DHT22;3747;48.628;9.058;2023-02-01T13:45:43;3.80;99.90
7411;DHT22;3747;48.628;9.058;2023-02-01T13:48:20;3.80;99.90
7411;DHT22;3747;48.628;9.058;2023-02-01T13:50:51;3.90;99.90
7411;DHT22;3747;48.628;9.058;2023-02-01T13:53:23;3.90;99.90
7411;DHT22;3747;48.628;9.058;2023-02-01T13:55:56;4.10;99.90
7411;DHT22;3747;48.628;9.058;2023-02-01T13:58:30;4.10;99.90
7411;DHT22;3747;48.628;9.058;2023-02-01T14:03:56;4.20;99.90
7411;DHT22;3747;48.628;9.058;2023-02-01T14:06:44;4.20;99.90
7411;DHT22;3747;48.628;9.058;2023-02-01T14:12:42;4.10;99.90
7411;DHT22;3747;48.628;9.058;2023-02-01T14:15:26;4.20;99.90
7411;DHT22;3747;48.628;9.058;2023-02-01T14:17:54;4.10;99.90
7411;DHT22;3747;48.628;9.058;2023-02-01T14:20:46;4.10;99.90
7411;DHT22;3747;48.628;9.058;2023-02-01T14:23:24;4.10;99.90
7411;DHT22;3747;48.628;9.058;2023-02-01T14:26:05;4.10;99.90
7411;DHT22;3747;48.628;9.058;2023-02-01T14:28:34;4.10;99.90
7411;DHT22;3747;48.628;9.058;2023-02-01T14:31:14;4.10;99.90
7411;DHT22;3747;48.628;9.058;2023-02-01T14:33:43;4.10;99.90
7411;DHT22;3747;48.628;9.058;2023-02-01T14:36:13;4.10;99.90
7411;DHT22;3747;48.628;9.058;2023-02-01T14:38:48;4.10;99.90
7411;DHT22;3747;48.628;9.058;2023-02-01T14:41:30;4.00;99.90
7411;DHT22;3747;48.628;9.058;2023-02-01T14:44:24;4.00;99.90
7411;DHT22;3747;48.628;9.058;2023-02-01T14:50:13;4.00;99.90
7411;DHT22;3747;48.628;9.058;2023-02-01T14:52:46;3.90;99.90
7411;DHT22;3747;48.628;9.058;2023-02-01T14:55:17;3.90;99.90
7411;DHT22;3747;48.628;9.058;2023-02-01T14:57:48;3.90;99.90
7411;DHT22;3747;48.628;9.058;2023-02-01T15:00:23;4.00;99.90
7411;DHT22;3747;48.628;9.058;2023-02-01T15:02:51;4.00;99.90
7411;DHT22;3747;48.628;9.058;2023-02-01T15:05:30;4.10;99.90
7411;DHT22;3747;48.628;9.058;2023-02-01T15:08:03;4.20;99.90
7411;DHT22;3747;48.628;9.058;2023-02-01T15:10:33;4.30;99.90
7411;DHT22;3747;48.628;9.058;2023-02-01T15:13:18;4.30;99.90
7411;DHT22;3747;48.628;9.058;2023-02-01T15:15:45;4.20;99.90
7411;DHT22;3747;48.628;9.058;2023-02-01T15:18:25;4.30;99.90
7411;DHT22;3747;48.628;9.058;2023-02-01T15:20:56;4.30;99.90
7411;DHT22;3747;48.628;9.058;2023-02-01T15:23:24;4.30;99.90
7411;DHT22;3747;48.628;9.058;2023-02-01T15:25:51;4.30;99.90
7411;DHT22;3747;48.628;9.058;2023-02-01T15:28:25;4.30;99.90
7411;DHT22;3747;48.628;9.058;2023-02-01T15:30:55;4.20;99.90
7411;DHT22;3747;48.628;9.058;2023-02-01T15:33:22;4.20;99.90
7411;DHT22;3747;48.628;9.058;2023-02-01T15:35:51;4.10;99.90
7411;DHT22;3747;48.628;9.058;2023-02-01T15:38:32;4.00;99.90
7411;DHT22;3747;48.628;9.058;2023-02-01T15:41:02;3.90;99.90
7411;DHT22;3747;48.628;9.058;2023-02-01T15:43:31;3.60;99.90
7411;DHT22;3747;48.628;9.058;2023-02-01T15:46:00;3.50;99.90
7411;DHT22;3747;48.628;9.058;2023-02-01T15:48:32;3.50;99.90
7411;DHT22;3747;48.628;9.058;2023-02-01T15:51:01;3.50;99.90
7411;DHT22;3747;48.628;9.058;2023-02-01T15:53:28;3.40;99.90
7411;DHT22;3747;48.628;9.058;2023-02-01T15:56:00;3.40;99.90
7411;DHT22;3747;48.628;9.058;2023-02-01T15:58:28;3.40;99.90
7411;DHT22;3747;48.628;9.058;2023-02-01T16:00:59;3.40;99.90
7411;DHT22;3747;48.628;9.058;2023-02-01T16:03:35;3.50;99.90
7411;DHT22;3747;48.628;9.058;2023-02-01T16:06:04;3.50;99.90
7411;DHT22;3747;48.628;9.058;2023-02-01T16:08:31;3.50;99.90
7411;DHT22;3747;48.628;9.058;2023-02-01T16:11:19;3.60;99.90
7411;DHT22;3747;48.628;9.058;2023-02-01T16:13:47;3.80;99.90
7411;DHT22;3747;48.628;9.058;2023-02-01T16:16:13;3.80;99.90
7411;DHT22;3747;48.628;9.058;2023-02-01T16:18:40;3.80;99.90
7411;DHT22;3747;48.628;9.058;2023-02-01T16:21:08;3.80;99.90
7411;DHT22;3747;48.628;9.058;2023-02-01T16:23:35;3.80;99.90
7411;DHT22;3747;48.628;9.058;2023-02-01T16:26:04;3.70;99.90
7411;DHT22;3747;48.628;9.058;2023-02-01T16:28:34;3.60;99.90
7411;DHT22;3747;48.628;9.058;2023-02-01T16:31:01;3.60;99.90
7411;DHT22;3747;48.628;9.058;2023-02-01T16:33:28;3.70;99.90
7411;DHT22;3747;48.628;9.058;2023-02-01T16:35:56;3.70;99.90
7411;DHT22;3747;48.628;9.058;2023-02-01T16:38:26;3.70;99.90
7411;DHT22;3747;48.628;9.058;2023-02-01T16:40:52;3.70;99.90
7411;DHT22;3747;48.628;9.058;2023-02-01T16:43:22;3.60;99.90
7411;DHT22;3747;48.628;9.058;2023-02-01T16:45:52;3.60;99.90
7411;DHT22;3747;48.628;9.058;2023-02-01T16:48:22;3.70;99.90
7411;DHT22;3747;48.628;9.058;2023-02-01T16:50:52;3.70;99.90
7411;DHT22;3747;48.628;9.058;2023-02-01T16:53:20;3.70;99.90
7411;DHT22;3747;48.628;9.058;2023-02-01T16:55:47;3.60;99.90
7411;DHT22;3747;48.628;9.058;2023-02-01T16:58:15;3.60;99.90
7411;DHT22;3747;48.628;9.058;2023-02-01T17:00:43;3.60;99.90